createdAt,value
2022-09-15T00:04:21.838Z,14.53
2022-09-15T00:09:24.382Z,15.00
2022-09-15T00:14:27.002Z,14.83
2022-09-15T00:19:29.650Z,14.13
2022-09-15T00:24:32.662Z,14.43
2022-09-15T00:29:35.845Z,11.17
2022-09-15T00:34:38.452Z,12.73
2022-09-15T00:39:41.093Z,13.13
2022-09-15T00:44:49.031Z,13.80
2022-09-15T00:49:59.004Z,12.63
2022-09-15T00:55:11.400Z,13.17
2022-09-15T01:00:18.276Z,13.33
2022-09-15T01:05:25.437Z,13.07
2022-09-15T01:10:31.413Z,12.67
2022-09-15T01:15:46.093Z,12.93
2022-09-15T01:20:57.497Z,14.47
2022-09-15T01:26:30.946Z,14.13
2022-09-15T01:32:12.131Z,15.87
2022-09-15T01:37:21.010Z,16.90
2022-09-15T01:42:26.013Z,15.40
2022-09-15T01:47:30.598Z,16.33
2022-09-15T01:52:33.782Z,15.17
2022-09-15T01:57:36.324Z,14.53
2022-09-15T02:02:48.306Z,15.47
2022-09-15T02:08:02.034Z,15.67
2022-09-15T02:13:20.801Z,14.73
2022-09-15T02:18:51.084Z,14.37
2022-09-15T02:24:01.233Z,13.90
2022-09-15T02:29:08.217Z,14.07
2022-09-15T02:34:21.884Z,13.07
2022-09-15T02:39:30.885Z,14.57
2022-09-15T02:44:33.597Z,13.47
2022-09-15T02:49:36.136Z,14.13
2022-09-15T02:54:38.741Z,14.83
2022-09-15T02:59:59.743Z,14.63
2022-09-15T03:05:02.319Z,14.30
2022-09-15T03:10:10.301Z,14.87
2022-09-15T03:15:15.012Z,14.37
2022-09-15T03:20:21.228Z,14.30
2022-09-15T03:25:26.704Z,15.33
2022-09-15T03:30:29.251Z,15.03
2022-09-15T03:35:31.784Z,14.07
2022-09-15T03:40:34.556Z,15.53
2022-09-15T03:45:38.855Z,16.03
2022-09-15T03:50:41.403Z,16.63
2022-09-15T03:55:45.388Z,15.10
2022-09-15T04:00:48.035Z,15.63
2022-09-15T04:05:50.715Z,15.13
2022-09-15T04:10:54.723Z,15.43
2022-09-15T04:15:59.227Z,15.47
2022-09-15T04:21:03.936Z,15.13
2022-09-15T04:26:14.524Z,13.67
2022-09-15T04:31:18.611Z,13.07
2022-09-15T04:36:23.765Z,13.03
2022-09-15T04:41:26.982Z,14.30
2022-09-15T04:46:29.613Z,14.80
2022-09-15T04:51:32.204Z,13.70
2022-09-15T04:56:34.793Z,13.80
2022-09-15T05:01:37.393Z,15.07
2022-09-15T05:06:40.195Z,15.07
2022-09-15T05:11:42.895Z,15.67
2022-09-15T05:16:45.452Z,15.43
2022-09-15T05:21:48.212Z,17.07
2022-09-15T05:26:50.909Z,15.70
2022-09-15T05:31:53.536Z,15.53
2022-09-15T05:36:57.058Z,15.90
2022-09-15T05:41:59.805Z,15.53
2022-09-15T05:47:02.546Z,17.07
2022-09-15T05:52:05.206Z,16.17
2022-09-15T05:57:07.837Z,16.93
2022-09-15T06:02:11.615Z,16.03
2022-09-15T06:07:14.347Z,18.67
2022-09-15T06:12:18.265Z,16.73
2022-09-15T06:17:23.005Z,18.50
2022-09-15T06:22:25.872Z,18.87
2022-09-15T06:27:28.443Z,16.37
2022-09-15T06:32:31.191Z,17.00
2022-09-15T06:37:34.558Z,17.47
2022-09-15T06:42:37.081Z,17.30
2022-09-15T06:47:39.681Z,17.03
2022-09-15T06:52:43.454Z,17.43
2022-09-15T06:57:46.230Z,18.73
2022-09-15T07:02:49.811Z,19.30
2022-09-15T07:07:52.981Z,19.37
2022-09-15T07:12:55.717Z,19.90
2022-09-15T07:17:59.357Z,18.87
2022-09-15T07:23:02.018Z,19.37
2022-09-15T07:28:04.723Z,19.63
2022-09-15T07:33:09.139Z,20.33
2022-09-15T07:38:11.775Z,20.23
2022-09-15T07:43:15.135Z,21.07
2022-09-15T07:48:17.784Z,21.60
2022-09-15T07:53:20.818Z,23.37
2022-09-15T07:58:24.270Z,22.00
2022-09-15T08:03:27.987Z,21.07
2022-09-15T08:08:30.849Z,22.07
2022-09-15T08:13:33.459Z,20.93
2022-09-15T08:18:36.499Z,23.00
2022-09-15T08:23:39.444Z,21.93
2022-09-15T08:28:42.362Z,21.50
2022-09-15T08:33:50.149Z,22.83
2022-09-15T08:38:52.761Z,23.30
2022-09-15T08:44:23.299Z,22.77
2022-09-15T08:49:50.054Z,23.57
2022-09-15T08:54:57.042Z,22.17
2022-09-15T08:59:59.609Z,22.03
2022-09-15T09:05:29.432Z,22.00
2022-09-15T09:10:55.695Z,19.00
2022-09-15T09:16:06.946Z,19.33
2022-09-15T09:21:12.739Z,18.60
2022-09-15T09:26:15.902Z,17.67
2022-09-15T09:31:23.110Z,15.80
2022-09-15T09:36:26.461Z,16.10
2022-09-15T09:41:36.233Z,15.10
2022-09-15T09:46:39.030Z,13.23
2022-09-15T09:51:53.760Z,13.57
2022-09-15T09:57:17.189Z,11.60
2022-09-15T10:02:23.454Z,12.03
2022-09-15T10:07:26.694Z,11.97
2022-09-15T10:12:41.284Z,11.37
2022-09-15T10:17:45.941Z,9.83
2022-09-15T10:22:48.782Z,9.57
2022-09-15T10:28:12.634Z,9.90
2022-09-15T10:33:26.514Z,7.83
2022-09-15T10:38:47.962Z,5.90
2022-09-15T10:44:11.898Z,5.90
2022-09-15T10:49:43.215Z,6.53
2022-09-15T10:55:13.769Z,4.57
2022-09-15T11:00:25.639Z,5.40
2022-09-15T11:05:53.146Z,4.73
2022-09-15T11:10:55.641Z,4.90
2022-09-15T11:16:10.082Z,4.27
2022-09-15T11:21:29.015Z,5.37
2022-09-15T11:26:40.003Z,4.33
2022-09-15T11:31:44.702Z,3.87
2022-09-15T11:36:53.457Z,2.73
2022-09-15T11:42:07.658Z,2.20
2022-09-15T11:47:16.420Z,2.60
2022-09-15T11:52:39.301Z,2.47
2022-09-15T11:58:02.442Z,2.30
2022-09-15T12:03:23.913Z,1.90
2022-09-15T12:08:41.130Z,2.00
2022-09-15T12:13:45.476Z,2.13
2022-09-15T12:18:59.508Z,2.20
2022-09-15T12:24:39.563Z,2.20
2022-09-15T12:29:49.549Z,1.90
2022-09-15T12:35:13.998Z,2.57
2022-09-15T12:40:30.126Z,2.80
2022-09-15T12:45:36.707Z,2.77
2022-09-15T12:50:41.901Z,2.90
2022-09-15T12:56:03.122Z,2.47
2022-09-15T13:01:26.760Z,2.83
2022-09-15T13:06:35.213Z,2.13
2022-09-15T13:11:41.984Z,2.10
2022-09-15T13:17:13.123Z,2.23
2022-09-15T13:22:27.177Z,2.20
2022-09-15T13:27:39.535Z,1.70
2022-09-15T13:32:58.156Z,1.43
2022-09-15T13:38:23.973Z,1.60
2022-09-15T13:43:45.296Z,1.80
2022-09-15T13:49:25.959Z,2.03
2022-09-15T13:54:28.582Z,2.20
2022-09-15T13:59:32.977Z,2.37
2022-09-15T14:04:35.724Z,2.43
2022-09-15T14:09:45.064Z,2.10
2022-09-15T14:14:53.919Z,2.00
2022-09-15T14:19:58.926Z,1.90
2022-09-15T14:25:08.105Z,1.70
2022-09-15T14:30:24.512Z,1.37
2022-09-15T14:35:31.200Z,1.27
2022-09-15T14:40:39.272Z,1.13
2022-09-15T14:51:16.375Z,1.13
2022-09-15T14:56:23.075Z,1.00
2022-09-15T15:01:35.177Z,1.03
2022-09-15T15:06:43.909Z,1.77
2022-09-15T15:11:58.030Z,1.20
2022-09-15T15:17:06.369Z,1.37
2022-09-15T15:22:23.051Z,1.37
2022-09-15T15:27:32.734Z,0.93
2022-09-15T15:32:35.345Z,1.43
2022-09-15T15:37:37.995Z,1.00
2022-09-15T15:43:16.611Z,1.00
2022-09-15T15:48:19.207Z,1.10
2022-09-15T15:53:23.392Z,1.13
2022-09-15T15:58:26.142Z,1.20
2022-09-15T16:03:28.756Z,1.33
2022-09-15T16:08:34.758Z,1.40
2022-09-15T16:13:37.709Z,1.10
2022-09-15T16:18:40.257Z,1.17
2022-09-15T16:23:42.972Z,1.30
2022-09-15T16:28:45.661Z,1.13
2022-09-15T16:33:48.274Z,1.13
2022-09-15T16:38:50.948Z,1.63
2022-09-15T16:43:54.317Z,1.50
2022-09-15T16:48:57.177Z,1.50
2022-09-15T16:53:59.779Z,1.20
2022-09-15T16:59:02.506Z,1.50
2022-09-15T17:04:14.826Z,2.40
2022-09-15T17:09:17.693Z,2.63
2022-09-15T17:14:20.896Z,1.57
2022-09-15T17:19:23.578Z,2.77
2022-09-15T17:24:26.149Z,2.40
2022-09-15T17:29:28.887Z,1.80
2022-09-15T17:34:31.455Z,1.50
2022-09-15T17:39:35.230Z,1.80
2022-09-15T17:44:37.910Z,1.60
2022-09-15T17:49:40.477Z,1.37
2022-09-15T17:54:43.058Z,1.50
2022-09-15T17:59:45.680Z,1.40
2022-09-15T18:04:48.360Z,1.60
2022-09-15T18:09:50.925Z,1.10
2022-09-15T18:14:53.593Z,1.10
2022-09-15T18:19:56.278Z,1.00
2022-09-15T18:24:58.889Z,1.03
2022-09-15T18:30:01.437Z,1.20
2022-09-15T18:35:04.178Z,1.20
2022-09-15T18:40:09.581Z,1.10
2022-09-15T18:46:07.501Z,0.90
2022-09-15T18:51:10.806Z,1.13
2022-09-15T18:56:15.378Z,1.00
2022-09-15T19:01:18.097Z,1.13
2022-09-15T19:06:20.834Z,1.20
2022-09-15T19:11:23.501Z,1.20
2022-09-15T19:16:46.750Z,1.40
2022-09-15T19:21:48.742Z,1.30
2022-09-15T19:26:51.376Z,1.23
2022-09-15T19:31:54.917Z,1.23
2022-09-15T19:36:57.714Z,1.13
2022-09-15T19:42:00.442Z,1.60
2022-09-15T19:47:03.337Z,1.53
2022-09-15T19:52:06.432Z,1.63
2022-09-15T19:57:09.188Z,1.30
2022-09-15T20:02:12.025Z,1.57
2022-09-15T20:07:14.757Z,1.43
2022-09-15T20:12:17.600Z,1.47
2022-09-15T20:17:20.233Z,1.73
2022-09-15T20:22:23.559Z,1.67
2022-09-15T20:27:26.162Z,1.60
2022-09-15T20:32:29.306Z,1.57
2022-09-15T20:37:37.292Z,1.70
2022-09-15T20:42:40.362Z,1.57
2022-09-15T20:47:42.925Z,1.53
2022-09-15T20:52:45.546Z,1.50
2022-09-15T20:57:48.281Z,1.30
2022-09-15T21:02:51.863Z,1.57
2022-09-15T21:07:54.434Z,1.83
2022-09-15T21:12:57.264Z,1.60
2022-09-15T21:18:00.378Z,1.77
2022-09-15T21:23:03.870Z,1.70
2022-09-15T21:28:06.979Z,1.43
2022-09-15T21:33:10.070Z,1.70
2022-09-15T21:38:12.625Z,1.67
2022-09-15T21:43:15.252Z,2.20
2022-09-15T21:48:17.854Z,1.73
2022-09-15T21:53:21.093Z,1.43
2022-09-15T21:58:26.163Z,1.60
2022-09-15T22:03:29.841Z,1.57
2022-09-15T22:08:32.373Z,2.00
2022-09-15T22:13:43.042Z,1.60
2022-09-15T22:18:46.205Z,1.50
2022-09-15T22:23:50.476Z,1.70
2022-09-15T22:28:53.693Z,1.93
2022-09-15T22:33:56.797Z,1.27
2022-09-15T22:39:04.523Z,1.67
2022-09-15T22:44:16.561Z,1.80
2022-09-15T22:49:19.710Z,1.80
2022-09-15T22:54:22.414Z,1.57
2022-09-15T22:59:24.933Z,1.50
2022-09-15T23:04:27.556Z,1.80
2022-09-15T23:09:34.177Z,1.70
2022-09-15T23:14:37.189Z,1.80
2022-09-15T23:19:40.111Z,1.60
2022-09-15T23:24:42.825Z,2.00
2022-09-15T23:29:45.457Z,1.80
2022-09-15T23:34:48.830Z,1.77
2022-09-15T23:39:51.554Z,1.87
2022-09-15T23:44:54.121Z,1.63
2022-09-15T23:49:56.761Z,1.97
2022-09-15T23:54:59.330Z,1.47
